createdAt,value
2022-11-15T00:01:11.069Z,1.55
2022-11-15T00:03:38.741Z,1.67
2022-11-15T00:06:07.130Z,1.17
2022-11-15T00:08:35.202Z,1.35
2022-11-15T00:11:04.587Z,1.83
2022-11-15T00:13:34.307Z,1.67
2022-11-15T00:16:03.685Z,1.77
2022-11-15T00:18:32.522Z,1.17
2022-11-15T00:21:06.456Z,1.60
2022-11-15T00:23:34.930Z,2.08
2022-11-15T00:26:03.001Z,1.30
2022-11-15T00:28:30.905Z,1.77
2022-11-15T00:31:03.986Z,1.98
2022-11-15T00:33:37.016Z,1.98
2022-11-15T00:36:06.289Z,0.80
2022-11-15T00:38:34.861Z,1.35
2022-11-15T00:41:08.885Z,0.82
2022-11-15T00:43:37.374Z,1.45
2022-11-15T00:46:06.653Z,2.13
2022-11-15T00:48:34.431Z,0.93
2022-11-15T00:51:02.216Z,1.20
2022-11-15T00:53:30.556Z,1.15
2022-11-15T00:55:58.584Z,2.22
2022-11-15T00:58:26.359Z,1.52
2022-11-15T01:00:54.208Z,1.27
2022-11-15T01:03:23.344Z,0.90
2022-11-15T01:05:51.238Z,1.25
2022-11-15T01:08:19.060Z,1.10
2022-11-15T01:10:46.790Z,1.23
2022-11-15T01:13:14.563Z,1.95
2022-11-15T01:15:42.686Z,1.75
2022-11-15T01:18:10.680Z,0.82
2022-11-15T01:20:43.185Z,1.30
2022-11-15T01:23:11.087Z,1.33
2022-11-15T01:25:38.807Z,0.90
2022-11-15T01:28:06.699Z,1.27
2022-11-15T01:30:34.368Z,2.15
2022-11-15T01:33:02.126Z,1.42
2022-11-15T01:35:29.870Z,1.35
2022-11-15T01:37:58.933Z,0.90
2022-11-15T01:40:26.730Z,0.88
2022-11-15T01:42:54.423Z,1.40
2022-11-15T01:45:22.255Z,1.00
2022-11-15T01:47:53.388Z,1.20
2022-11-15T01:50:24.504Z,1.63
2022-11-15T01:52:52.281Z,1.30
2022-11-15T01:55:23.794Z,0.65
2022-11-15T01:57:55.154Z,0.90
2022-11-15T02:00:23.084Z,0.98
2022-11-15T02:02:50.868Z,1.30
2022-11-15T02:05:18.717Z,0.88
2022-11-15T02:07:47.201Z,0.63
2022-11-15T02:10:16.560Z,0.90
2022-11-15T02:12:46.635Z,0.68
2022-11-15T02:15:15.093Z,0.88
2022-11-15T02:17:58.678Z,1.35
2022-11-15T02:20:44.509Z,0.88
2022-11-15T02:23:54.931Z,1.13
2022-11-15T02:26:43.500Z,1.00
2022-11-15T02:29:17.615Z,1.08
2022-11-15T02:31:53.662Z,0.88
2022-11-15T02:34:28.390Z,1.15
2022-11-15T02:37:07.918Z,1.17
2022-11-15T02:39:41.550Z,0.63
2022-11-15T02:42:28.874Z,1.17
2022-11-15T02:44:59.233Z,1.10
2022-11-15T02:47:32.240Z,0.88
2022-11-15T02:50:04.149Z,1.10
2022-11-15T02:52:31.875Z,1.58
2022-11-15T02:55:01.820Z,0.65
2022-11-15T02:57:46.195Z,0.70
2022-11-15T03:00:16.196Z,0.68
2022-11-15T03:03:07.484Z,0.77
2022-11-15T03:05:42.552Z,1.00
2022-11-15T03:08:19.449Z,0.88
2022-11-15T03:10:58.765Z,1.35
2022-11-15T03:13:29.478Z,1.58
2022-11-15T03:16:05.317Z,0.82
2022-11-15T03:18:37.973Z,1.00
2022-11-15T03:21:09.803Z,1.00
2022-11-15T03:23:39.278Z,0.40
2022-11-15T03:26:09.627Z,0.47
2022-11-15T03:28:40.908Z,1.10
2022-11-15T03:31:24.934Z,0.63
2022-11-15T03:33:57.110Z,2.05
2022-11-15T03:36:26.948Z,0.68
2022-11-15T03:38:58.870Z,0.52
2022-11-15T03:41:31.836Z,1.35
2022-11-15T03:44:06.517Z,0.80
2022-11-15T03:46:38.923Z,1.20
2022-11-15T03:49:13.828Z,1.10
2022-11-15T03:51:42.367Z,0.90
2022-11-15T03:54:10.153Z,1.02
2022-11-15T03:56:37.821Z,0.82
2022-11-15T03:59:05.621Z,0.95
2022-11-15T04:01:33.350Z,0.80
2022-11-15T04:04:01.113Z,1.00
2022-11-15T04:06:30.161Z,1.20
2022-11-15T04:08:57.938Z,0.60
2022-11-15T04:11:25.689Z,1.60
2022-11-15T04:13:53.356Z,1.27
2022-11-15T04:16:21.151Z,0.73
2022-11-15T04:19:09.633Z,0.93
2022-11-15T04:21:56.365Z,0.50
2022-11-15T04:24:24.041Z,0.57
2022-11-15T04:26:51.806Z,0.40
2022-11-15T04:29:37.915Z,0.75
2022-11-15T04:32:07.822Z,1.00
2022-11-15T04:34:36.123Z,1.25
2022-11-15T04:37:13.134Z,1.58
2022-11-15T04:39:41.217Z,0.65
2022-11-15T04:42:09.701Z,1.77
2022-11-15T04:44:37.477Z,1.35
2022-11-15T04:47:05.552Z,1.48
2022-11-15T04:49:33.248Z,0.75
2022-11-15T04:52:01.262Z,0.47
2022-11-15T04:54:30.622Z,1.15
2022-11-15T04:56:58.348Z,0.88
2022-11-15T04:59:26.088Z,1.00
2022-11-15T05:01:53.821Z,1.02
2022-11-15T05:04:20.502Z,0.70
2022-11-15T05:06:49.985Z,0.95
2022-11-15T05:09:18.339Z,0.93
2022-11-15T05:11:48.648Z,0.63
2022-11-15T05:14:16.663Z,1.30
2022-11-15T05:16:44.770Z,1.05
2022-11-15T05:19:12.769Z,1.75
2022-11-15T05:21:40.708Z,1.23
2022-11-15T05:24:08.545Z,0.60
2022-11-15T05:26:36.268Z,0.73
2022-11-15T05:29:05.407Z,0.90
2022-11-15T05:31:33.085Z,1.15
2022-11-15T05:34:02.829Z,0.50
2022-11-15T05:36:35.797Z,1.27
2022-11-15T05:39:04.901Z,0.60
2022-11-15T05:41:37.747Z,1.35
2022-11-15T05:44:09.704Z,1.55
2022-11-15T05:46:39.496Z,1.48
2022-11-15T05:49:10.110Z,0.65
2022-11-15T05:51:38.040Z,0.95
2022-11-15T05:54:05.927Z,1.27
2022-11-15T05:56:33.845Z,0.95
2022-11-15T05:59:01.917Z,1.77
2022-11-15T06:01:31.840Z,1.70
2022-11-15T06:03:59.520Z,1.40
2022-11-15T06:06:29.104Z,1.08
2022-11-15T06:08:56.973Z,1.27
2022-11-15T06:11:24.760Z,1.08
2022-11-15T06:13:52.484Z,0.93
2022-11-15T06:16:20.176Z,0.90
2022-11-15T06:18:49.249Z,0.88
2022-11-15T06:21:16.958Z,1.45
2022-11-15T06:23:44.737Z,0.88
2022-11-15T06:26:12.437Z,0.60
2022-11-15T06:28:40.162Z,0.85
2022-11-15T06:31:11.861Z,0.77
2022-11-15T06:33:40.533Z,1.40
2022-11-15T06:36:17.545Z,1.08
2022-11-15T06:38:46.081Z,1.02
2022-11-15T06:41:14.791Z,1.60
2022-11-15T06:43:42.789Z,1.70
2022-11-15T06:46:10.560Z,1.02
2022-11-15T06:48:38.422Z,1.33
2022-11-15T06:51:07.261Z,1.48
2022-11-15T06:53:36.570Z,0.98
2022-11-15T06:56:06.361Z,1.02
2022-11-15T06:58:34.232Z,1.52
2022-11-15T07:01:02.159Z,1.33
2022-11-15T07:03:30.605Z,1.55
2022-11-15T07:06:05.783Z,0.90
2022-11-15T07:08:37.328Z,1.17
2022-11-15T07:11:08.999Z,1.23
2022-11-15T07:13:38.281Z,1.83
2022-11-15T07:16:07.342Z,1.85
2022-11-15T07:18:36.049Z,1.92
2022-11-15T07:21:05.521Z,0.80
2022-11-15T07:23:34.185Z,1.35
2022-11-15T07:26:03.477Z,1.77
2022-11-15T07:28:31.646Z,1.10
2022-11-15T07:30:59.456Z,0.70
2022-11-15T07:33:27.146Z,1.20
2022-11-15T07:35:54.893Z,1.77
2022-11-15T07:38:22.573Z,0.90
2022-11-15T07:40:59.249Z,0.45
2022-11-15T07:43:30.725Z,0.98
2022-11-15T07:45:59.547Z,0.90
2022-11-15T07:48:42.205Z,1.23
2022-11-15T07:51:14.283Z,0.75
2022-11-15T07:53:42.365Z,0.98
2022-11-15T07:56:10.671Z,0.70
2022-11-15T07:58:39.748Z,1.75
2022-11-15T08:01:08.466Z,1.05
2022-11-15T08:03:37.112Z,1.35
2022-11-15T08:06:05.956Z,1.35
2022-11-15T08:08:33.710Z,1.45
2022-11-15T08:11:01.605Z,1.05
2022-11-15T08:13:30.060Z,1.65
2022-11-15T08:16:01.467Z,1.20
2022-11-15T08:18:29.168Z,0.68
2022-11-15T08:21:01.510Z,0.68
2022-11-15T08:23:29.968Z,1.40
2022-11-15T08:26:03.193Z,0.98
2022-11-15T08:28:31.203Z,0.90
2022-11-15T08:30:58.947Z,0.70
2022-11-15T08:33:28.864Z,0.65
2022-11-15T08:35:58.196Z,0.98
2022-11-15T08:38:26.464Z,1.05
2022-11-15T08:40:55.537Z,0.63
2022-11-15T08:43:23.207Z,0.52
2022-11-15T08:45:50.897Z,0.60
2022-11-15T08:48:18.623Z,0.55
2022-11-15T08:50:47.696Z,0.30
2022-11-15T08:53:15.581Z,0.68
2022-11-15T08:55:43.408Z,0.60
2022-11-15T08:58:11.104Z,0.68
2022-11-15T09:00:38.870Z,0.73
2022-11-15T09:03:07.296Z,0.68
2022-11-15T09:05:37.995Z,0.47
2022-11-15T09:08:25.550Z,0.50
2022-11-15T09:10:55.098Z,0.40
2022-11-15T09:13:22.913Z,0.68
2022-11-15T09:15:50.744Z,0.60
2022-11-15T09:18:18.445Z,0.73
2022-11-15T09:20:46.271Z,0.80
2022-11-15T09:23:15.425Z,1.25
2022-11-15T09:25:43.185Z,0.68
2022-11-15T09:28:10.949Z,0.63
2022-11-15T09:30:38.715Z,1.13
2022-11-15T09:33:10.278Z,0.68
2022-11-15T09:35:38.292Z,1.30
2022-11-15T09:38:06.476Z,0.65
2022-11-15T09:40:38.857Z,1.48
2022-11-15T09:43:25.109Z,1.05
2022-11-15T09:46:01.982Z,1.05
2022-11-15T09:48:51.589Z,0.88
2022-11-15T09:51:27.989Z,0.70
2022-11-15T09:56:59.681Z,1.15
2022-11-15T09:59:47.228Z,1.40
2022-11-15T10:02:28.507Z,0.68
2022-11-15T10:04:56.267Z,1.73
2022-11-15T10:07:30.300Z,0.80
2022-11-15T10:10:02.944Z,0.95
2022-11-15T10:12:33.067Z,1.02
2022-11-15T10:15:05.213Z,1.70
2022-11-15T10:17:57.958Z,1.58
2022-11-15T10:20:28.521Z,0.80
2022-11-15T10:23:00.852Z,1.38
2022-11-15T10:25:30.541Z,1.17
2022-11-15T10:28:03.143Z,1.33
2022-11-15T10:30:37.657Z,1.10
2022-11-15T10:33:27.045Z,1.00
2022-11-15T10:36:17.295Z,1.13
2022-11-15T10:38:57.367Z,2.13
2022-11-15T10:41:34.149Z,0.93
2022-11-15T10:44:25.343Z,0.95
2022-11-15T10:47:39.503Z,1.08
2022-11-15T10:50:10.063Z,1.08
2022-11-15T10:52:38.887Z,1.92
2022-11-15T10:55:24.948Z,1.00
2022-11-15T10:57:54.754Z,1.15
2022-11-15T11:00:34.373Z,1.02
2022-11-15T11:03:04.060Z,1.00
2022-11-15T11:05:38.132Z,0.60
2022-11-15T11:08:24.333Z,1.52
2022-11-15T11:11:01.523Z,0.93
2022-11-15T11:13:32.682Z,1.23
2022-11-15T11:16:26.000Z,2.03
2022-11-15T11:19:04.336Z,1.83
2022-11-15T11:21:44.955Z,1.95
2022-11-15T11:24:20.891Z,1.23
2022-11-15T11:27:06.332Z,1.30
2022-11-15T11:29:47.951Z,1.67
2022-11-15T11:32:31.272Z,2.42
2022-11-15T11:35:07.663Z,1.48
2022-11-15T11:37:41.981Z,1.55
2022-11-15T11:40:23.260Z,1.67
2022-11-15T11:43:00.207Z,1.65
2022-11-15T11:45:50.705Z,0.73
2022-11-15T11:48:42.475Z,1.50
2022-11-15T11:51:18.268Z,1.70
2022-11-15T11:53:54.275Z,0.80
2022-11-15T11:56:29.795Z,1.02
2022-11-15T11:59:04.444Z,1.50
2022-11-15T12:01:37.683Z,1.70
2022-11-15T12:04:14.913Z,1.13
2022-11-15T12:06:48.589Z,0.95
2022-11-15T12:09:22.699Z,1.50
2022-11-15T12:11:57.036Z,1.73
2022-11-15T12:14:32.931Z,1.48
2022-11-15T12:17:01.419Z,1.50
2022-11-15T12:19:31.463Z,1.42
2022-11-15T12:22:14.896Z,1.35
2022-11-15T12:24:47.845Z,1.13
2022-11-15T12:27:26.321Z,1.63
2022-11-15T12:29:58.824Z,1.58
2022-11-15T12:32:30.827Z,1.00
2022-11-15T12:35:01.135Z,1.33
2022-11-15T12:37:59.948Z,1.23
2022-11-15T12:40:33.835Z,1.45
2022-11-15T12:43:34.218Z,2.42
2022-11-15T12:46:07.272Z,1.60
2022-11-15T12:48:51.405Z,1.55
2022-11-15T12:51:22.023Z,1.40
2022-11-15T12:53:49.951Z,1.85
2022-11-15T12:56:24.866Z,1.33
2022-11-15T12:58:55.750Z,1.42
2022-11-15T13:01:58.234Z,1.92
2022-11-15T13:04:28.747Z,0.98
2022-11-15T13:07:00.785Z,1.33
2022-11-15T13:09:55.347Z,1.17
2022-11-15T13:13:02.886Z,0.77
2022-11-15T13:15:57.131Z,1.98
2022-11-15T13:18:37.444Z,0.95
2022-11-15T13:21:37.166Z,1.33
2022-11-15T13:24:06.966Z,1.33
2022-11-15T13:26:34.799Z,1.05
2022-11-15T13:29:02.925Z,2.70
2022-11-15T13:31:37.012Z,1.13
2022-11-15T13:34:36.570Z,0.85
2022-11-15T13:37:05.226Z,0.98
2022-11-15T13:39:38.282Z,1.15
2022-11-15T13:42:06.151Z,1.17
2022-11-15T13:44:35.410Z,0.95
2022-11-15T13:47:06.093Z,0.82
2022-11-15T13:49:35.720Z,0.85
2022-11-15T13:52:06.970Z,1.08
2022-11-15T13:54:40.747Z,0.95
2022-11-15T13:57:14.237Z,1.00
2022-11-15T13:59:48.749Z,0.88
2022-11-15T14:02:19.121Z,1.30
2022-11-15T14:04:50.136Z,0.85
2022-11-15T14:07:21.123Z,1.42
2022-11-15T14:09:50.836Z,0.95
2022-11-15T14:12:32.589Z,1.60
2022-11-15T14:15:01.389Z,1.35
2022-11-15T14:17:38.516Z,0.75
2022-11-15T14:20:28.097Z,1.02
2022-11-15T14:22:56.960Z,1.30
2022-11-15T14:25:28.410Z,0.88
2022-11-15T14:28:15.079Z,0.77
2022-11-15T14:30:44.248Z,1.40
2022-11-15T14:33:25.071Z,0.60
2022-11-15T14:35:53.956Z,1.58
2022-11-15T14:38:21.749Z,1.10
2022-11-15T14:40:51.116Z,1.23
2022-11-15T14:43:18.873Z,0.60
2022-11-15T14:45:46.621Z,0.75
2022-11-15T14:48:14.293Z,0.68
2022-11-15T14:50:42.325Z,1.38
2022-11-15T14:53:14.124Z,1.20
2022-11-15T14:55:41.951Z,0.82
2022-11-15T14:58:11.655Z,0.77
2022-11-15T15:00:41.610Z,0.60
2022-11-15T15:03:10.185Z,1.05
2022-11-15T15:05:39.947Z,1.42
2022-11-15T15:08:08.659Z,1.75
2022-11-15T15:10:41.221Z,1.27
2022-11-15T15:13:18.360Z,0.80
2022-11-15T15:15:46.285Z,0.93
2022-11-15T15:18:14.032Z,1.20
2022-11-15T15:20:43.505Z,0.82
2022-11-15T15:23:17.901Z,0.75
2022-11-15T15:25:46.504Z,1.67
2022-11-15T15:28:15.977Z,1.00
2022-11-15T15:30:43.698Z,0.70
2022-11-15T15:33:11.428Z,0.70
2022-11-15T15:35:39.141Z,0.60
2022-11-15T15:38:06.864Z,1.10
2022-11-15T15:40:35.607Z,0.55
2022-11-15T15:43:03.483Z,0.50
2022-11-15T15:45:34.400Z,1.13
2022-11-15T15:48:02.086Z,1.52
2022-11-15T15:50:32.061Z,1.58
2022-11-15T15:53:01.864Z,0.88
2022-11-15T15:55:30.013Z,0.70
2022-11-15T15:57:57.774Z,0.60
2022-11-15T16:00:27.209Z,0.63
2022-11-15T16:02:56.710Z,1.33
2022-11-15T16:05:24.544Z,0.70
2022-11-15T16:07:52.697Z,0.60
2022-11-15T16:10:23.901Z,1.15
2022-11-15T16:12:51.888Z,0.75
2022-11-15T16:15:20.148Z,0.68
2022-11-15T16:17:51.730Z,0.60
2022-11-15T16:20:33.369Z,5.05
2022-11-15T16:23:07.270Z,24.02
2022-11-15T16:25:40.625Z,22.77
2022-11-15T16:28:18.217Z,9.05
2022-11-15T16:30:46.185Z,5.75
2022-11-15T16:33:13.947Z,6.10
2022-11-15T16:35:42.987Z,7.70
2022-11-15T16:38:16.282Z,4.45
2022-11-15T16:40:44.392Z,2.65
2022-11-15T16:43:12.596Z,1.83
2022-11-15T16:45:40.439Z,1.00
2022-11-15T16:48:08.196Z,1.05
2022-11-15T16:50:40.775Z,1.73
2022-11-15T16:53:09.901Z,1.42
2022-11-15T16:55:37.675Z,1.15
2022-11-15T16:58:05.353Z,0.82
2022-11-15T17:00:33.110Z,1.10
2022-11-15T17:03:00.891Z,1.52
2022-11-15T17:05:28.600Z,1.00
2022-11-15T17:07:56.672Z,0.80
2022-11-15T17:10:27.348Z,0.98
2022-11-15T17:12:57.023Z,1.70
2022-11-15T17:15:25.487Z,1.05
2022-11-15T17:17:54.339Z,0.88
2022-11-15T17:20:24.887Z,1.00
2022-11-15T17:22:53.632Z,1.33
2022-11-15T17:25:21.680Z,0.65
2022-11-15T17:27:50.922Z,1.20
2022-11-15T17:30:20.280Z,1.48
2022-11-15T17:32:49.684Z,1.63
2022-11-15T17:35:17.588Z,1.17
2022-11-15T17:37:45.365Z,1.20
2022-11-15T17:40:13.370Z,1.23
2022-11-15T17:42:43.061Z,1.60
2022-11-15T17:45:12.429Z,1.27
2022-11-15T17:47:40.362Z,1.70
2022-11-15T17:50:08.419Z,1.80
2022-11-15T17:52:36.113Z,2.05
2022-11-15T17:55:04.093Z,1.90
2022-11-15T17:57:31.875Z,1.38
2022-11-15T17:59:59.623Z,1.88
2022-11-15T18:02:28.789Z,2.17
2022-11-15T18:04:56.473Z,1.45
2022-11-15T18:07:24.273Z,1.38
2022-11-15T18:09:52.009Z,2.40
2022-11-15T18:12:19.787Z,1.65
2022-11-15T18:14:47.506Z,1.85
2022-11-15T18:17:15.261Z,2.22
2022-11-15T18:19:44.304Z,3.50
2022-11-15T18:22:12.042Z,1.63
2022-11-15T18:24:41.341Z,1.50
2022-11-15T18:27:09.109Z,1.75
2022-11-15T18:29:38.010Z,1.38
2022-11-15T18:32:12.394Z,2.35
2022-11-15T18:34:40.274Z,1.58
2022-11-15T18:37:09.381Z,1.38
2022-11-15T18:39:37.756Z,1.67
2022-11-15T18:42:05.969Z,1.10
2022-11-15T18:44:34.411Z,1.40
2022-11-15T18:47:02.151Z,1.73
2022-11-15T18:49:29.946Z,1.52
2022-11-15T18:51:57.654Z,1.23
2022-11-15T18:54:31.068Z,1.45
2022-11-15T18:56:59.584Z,1.63
2022-11-15T18:59:28.185Z,1.73
2022-11-15T19:01:56.867Z,1.35
2022-11-15T19:04:24.623Z,1.25
2022-11-15T19:06:53.468Z,1.77
2022-11-15T19:09:21.430Z,1.80
2022-11-15T19:11:51.990Z,1.95
2022-11-15T19:14:23.801Z,2.08
2022-11-15T19:16:52.328Z,2.40
2022-11-15T19:19:21.709Z,3.15
2022-11-15T19:21:49.632Z,1.60
2022-11-15T19:24:17.396Z,2.60
2022-11-15T19:26:45.632Z,1.30
2022-11-15T19:29:15.087Z,2.38
2022-11-15T19:31:43.132Z,1.42
2022-11-15T19:34:11.263Z,1.27
2022-11-15T19:36:41.015Z,2.80
2022-11-15T19:39:11.150Z,1.95
2022-11-15T19:41:42.057Z,2.28
2022-11-15T19:44:10.890Z,2.35
2022-11-15T19:46:40.533Z,2.38
2022-11-15T19:49:10.477Z,2.72
2022-11-15T19:51:38.933Z,1.92
2022-11-15T19:54:08.918Z,2.47
2022-11-15T19:56:37.690Z,2.97
2022-11-15T19:59:06.083Z,3.42
2022-11-15T20:01:37.911Z,3.47
2022-11-15T20:04:09.714Z,3.28
2022-11-15T20:06:40.121Z,3.15
2022-11-15T20:09:08.093Z,4.05
2022-11-15T20:11:37.898Z,5.85
2022-11-15T20:14:06.510Z,3.78
2022-11-15T20:16:34.492Z,3.83
2022-11-15T20:19:02.378Z,4.57
2022-11-15T20:21:31.469Z,3.17
2022-11-15T20:23:59.300Z,1.42
2022-11-15T20:26:27.208Z,2.58
2022-11-15T20:29:00.976Z,1.20
2022-11-15T20:31:29.557Z,1.70
2022-11-15T20:33:57.332Z,2.00
2022-11-15T20:36:25.479Z,1.45
2022-11-15T20:38:58.152Z,1.55
2022-11-15T20:41:26.540Z,1.67
2022-11-15T20:43:54.298Z,1.70
2022-11-15T20:46:22.029Z,1.38
2022-11-15T20:48:49.757Z,1.67
2022-11-15T20:51:19.760Z,1.38
2022-11-15T20:53:48.694Z,2.20
2022-11-15T20:56:19.749Z,1.67
2022-11-15T20:58:50.076Z,2.10
2022-11-15T21:01:23.085Z,1.25
2022-11-15T21:03:52.056Z,1.67
2022-11-15T21:06:20.935Z,1.25
2022-11-15T21:09:06.391Z,1.67
2022-11-15T21:11:52.908Z,1.27
2022-11-15T21:14:20.895Z,1.10
2022-11-15T21:16:48.664Z,1.83
2022-11-15T21:19:16.451Z,0.77
2022-11-15T21:21:44.219Z,0.80
2022-11-15T21:24:12.024Z,0.98
2022-11-15T21:26:41.405Z,0.73
2022-11-15T21:29:09.343Z,1.63
2022-11-15T21:31:37.432Z,1.60
2022-11-15T21:34:07.184Z,1.63
2022-11-15T21:36:34.955Z,1.13
2022-11-15T21:39:02.969Z,1.20
2022-11-15T21:41:31.209Z,1.67
2022-11-15T21:44:00.956Z,0.75
2022-11-15T21:46:29.213Z,1.65
2022-11-15T21:48:57.274Z,1.42
2022-11-15T21:51:25.708Z,1.45
2022-11-15T21:53:55.852Z,2.00
2022-11-15T21:56:23.892Z,1.83
2022-11-15T21:58:51.606Z,1.13
2022-11-15T22:01:38.224Z,1.70
2022-11-15T22:04:07.056Z,2.90
2022-11-15T22:06:35.113Z,3.30
2022-11-15T22:09:03.600Z,3.35
2022-11-15T22:11:31.337Z,3.85
2022-11-15T22:13:59.115Z,3.63
2022-11-15T22:16:28.224Z,3.00
2022-11-15T22:18:56.245Z,4.93
2022-11-15T22:21:24.056Z,5.88
2022-11-15T22:23:51.777Z,5.60
2022-11-15T22:26:23.815Z,2.65
2022-11-15T22:28:52.136Z,3.03
2022-11-15T22:31:20.180Z,2.40
2022-11-15T22:33:49.251Z,3.72
2022-11-15T22:36:17.253Z,3.95
2022-11-15T22:38:44.918Z,4.32
2022-11-15T22:41:12.872Z,5.68
2022-11-15T22:43:40.676Z,6.30
2022-11-15T22:46:08.531Z,3.13
2022-11-15T22:48:38.068Z,2.00
2022-11-15T22:51:08.258Z,2.03
2022-11-15T22:53:36.006Z,1.58
2022-11-15T22:56:05.756Z,1.20
2022-11-15T22:58:34.346Z,1.02
2022-11-15T23:01:04.129Z,2.10
2022-11-15T23:03:33.067Z,1.00
2022-11-15T23:06:05.428Z,2.10
2022-11-15T23:08:34.951Z,0.80
2022-11-15T23:11:20.933Z,2.38
2022-11-15T23:13:51.765Z,1.13
2022-11-15T23:16:34.233Z,1.30
2022-11-15T23:19:04.180Z,0.80
2022-11-15T23:21:51.756Z,2.15
2022-11-15T23:24:21.705Z,0.77
2022-11-15T23:26:51.563Z,1.35
2022-11-15T23:29:21.586Z,1.73
2022-11-15T23:32:06.978Z,0.95
2022-11-15T23:34:37.320Z,1.13
2022-11-15T23:37:06.074Z,0.93
2022-11-15T23:39:35.159Z,0.95
2022-11-15T23:42:08.581Z,1.50
2022-11-15T23:44:37.017Z,1.35
2022-11-15T23:47:04.786Z,0.73
2022-11-15T23:49:32.597Z,0.98
2022-11-15T23:52:00.308Z,1.00
2022-11-15T23:54:28.084Z,0.75
2022-11-15T23:56:57.145Z,0.90
2022-11-15T23:59:24.913Z,1.30
